createdAt,value
2023-03-12T00:02:00.605Z,2.70
2023-03-12T00:04:27.902Z,3.00
2023-03-12T00:06:54.709Z,2.80
2023-03-12T00:09:21.366Z,2.70
2023-03-12T00:11:48.065Z,2.83
2023-03-12T00:14:14.936Z,2.23
2023-03-12T00:16:43.460Z,2.87
2023-03-12T00:19:11.667Z,2.80
2023-03-12T00:21:38.934Z,2.80
2023-03-12T00:24:05.780Z,2.93
2023-03-12T00:26:32.426Z,3.03
2023-03-12T00:28:59.103Z,3.40
2023-03-12T00:31:29.628Z,3.17
2023-03-12T00:33:56.705Z,4.33
2023-03-12T00:36:28.275Z,3.23
2023-03-12T00:38:55.752Z,3.70
2023-03-12T00:41:23.112Z,3.10
2023-03-12T00:43:50.754Z,3.40
2023-03-12T00:46:17.869Z,2.63
2023-03-12T00:48:45.121Z,2.53
2023-03-12T00:51:11.881Z,2.37
2023-03-12T00:53:38.484Z,2.97
2023-03-12T00:56:05.980Z,2.93
2023-03-12T00:58:32.623Z,3.10
2023-03-12T01:00:59.365Z,2.77
2023-03-12T01:03:26.227Z,3.43
2023-03-12T01:05:55.680Z,2.67
2023-03-12T01:08:22.907Z,2.60
2023-03-12T01:10:49.984Z,2.60
2023-03-12T01:13:16.818Z,2.90
2023-03-12T01:15:43.519Z,2.77
2023-03-12T01:18:10.160Z,2.50
2023-03-12T01:20:36.779Z,3.43
2023-03-12T01:23:03.665Z,3.40
2023-03-12T01:25:30.311Z,3.17
2023-03-12T01:27:56.963Z,3.10
2023-03-12T01:30:23.786Z,3.47
2023-03-12T01:32:52.031Z,2.90
2023-03-12T01:35:18.862Z,2.80
2023-03-12T01:37:46.737Z,2.60
2023-03-12T01:40:18.656Z,2.90
2023-03-12T01:42:52.818Z,3.30
2023-03-12T01:46:11.059Z,2.80
2023-03-12T01:48:44.678Z,2.90
2023-03-12T01:51:14.113Z,3.60
2023-03-12T01:53:45.425Z,3.17
2023-03-12T01:56:13.172Z,3.40
2023-03-12T01:58:43.455Z,3.50
2023-03-12T02:01:10.304Z,3.60
2023-03-12T02:03:37.194Z,3.10
2023-03-12T02:06:07.379Z,3.20
2023-03-12T02:08:38.591Z,2.80
2023-03-12T02:11:05.421Z,3.10
2023-03-12T02:13:32.087Z,3.40
2023-03-12T02:15:58.813Z,4.10
2023-03-12T02:18:25.583Z,3.47
2023-03-12T02:21:08.501Z,2.77
2023-03-12T02:24:02.203Z,3.00
2023-03-12T02:26:30.414Z,3.00
2023-03-12T02:28:59.681Z,2.73
2023-03-12T02:31:28.880Z,4.07
2023-03-12T02:33:56.034Z,2.80
2023-03-12T02:36:22.845Z,3.10
2023-03-12T02:38:51.668Z,2.60
2023-03-12T02:41:21.449Z,2.60
2023-03-12T02:43:59.804Z,2.57
2023-03-12T02:46:26.887Z,3.00
2023-03-12T02:48:53.720Z,2.60
2023-03-12T02:51:20.424Z,2.80
2023-03-12T02:53:47.250Z,2.93
2023-03-12T02:56:13.894Z,2.60
2023-03-12T02:58:41.906Z,2.70
2023-03-12T03:01:08.542Z,3.27
2023-03-12T03:03:35.140Z,3.00
2023-03-12T03:06:01.787Z,3.20
2023-03-12T03:08:29.560Z,2.70
2023-03-12T03:10:56.227Z,3.40
2023-03-12T03:13:22.895Z,2.80
2023-03-12T03:15:49.585Z,3.00
2023-03-12T03:18:16.246Z,3.00
2023-03-12T03:20:44.609Z,3.17
2023-03-12T03:23:11.498Z,2.90
2023-03-12T03:25:38.299Z,2.90
2023-03-12T03:28:05.018Z,3.07
2023-03-12T03:30:32.455Z,3.10
2023-03-12T03:32:59.094Z,3.03
2023-03-12T03:35:25.740Z,3.20
2023-03-12T03:37:52.451Z,3.50
2023-03-12T03:40:19.292Z,3.53
2023-03-12T03:42:45.939Z,3.30
2023-03-12T03:45:12.590Z,3.07
2023-03-12T03:47:39.317Z,3.13
2023-03-12T03:50:06.819Z,3.60
2023-03-12T03:52:33.749Z,3.33
2023-03-12T03:55:00.427Z,3.10
2023-03-12T03:57:27.851Z,3.93
2023-03-12T03:59:54.691Z,3.13
2023-03-12T04:02:21.590Z,3.43
2023-03-12T04:04:48.241Z,3.13
2023-03-12T04:07:14.962Z,3.07
2023-03-12T04:09:41.633Z,3.50
2023-03-12T04:12:09.264Z,3.70
2023-03-12T04:14:39.638Z,3.23
2023-03-12T04:17:06.430Z,3.83
2023-03-12T04:19:33.025Z,3.80
2023-03-12T04:22:00.068Z,3.67
2023-03-12T04:24:26.711Z,3.70
2023-03-12T04:26:53.341Z,3.67
2023-03-12T04:29:20.061Z,3.67
2023-03-12T04:31:46.718Z,3.77
2023-03-12T04:34:14.625Z,3.40
2023-03-12T04:36:41.646Z,3.73
2023-03-12T04:39:08.422Z,3.43
2023-03-12T04:41:35.918Z,3.73
2023-03-12T04:44:03.766Z,3.27
2023-03-12T04:46:30.563Z,3.77
2023-03-12T04:48:58.168Z,3.63
2023-03-12T04:51:25.148Z,3.80
2023-03-12T04:53:51.956Z,3.47
2023-03-12T04:56:18.633Z,3.30
2023-03-12T04:58:45.737Z,3.73
2023-03-12T05:01:21.307Z,4.40
2023-03-12T05:03:47.927Z,3.77
2023-03-12T05:06:14.530Z,4.47
2023-03-12T05:08:41.320Z,4.80
2023-03-12T05:11:07.947Z,4.13
2023-03-12T05:13:34.611Z,3.57
2023-03-12T05:16:01.272Z,4.20
2023-03-12T05:18:28.014Z,3.70
2023-03-12T05:21:02.618Z,3.60
2023-03-12T05:23:30.156Z,4.60
2023-03-12T05:25:56.832Z,4.70
2023-03-12T05:28:27.879Z,3.37
2023-03-12T05:30:56.107Z,3.30
2023-03-12T05:33:22.729Z,4.23
2023-03-12T05:35:49.681Z,4.20
2023-03-12T05:38:16.590Z,4.63
2023-03-12T05:40:43.277Z,4.47
2023-03-12T05:43:09.892Z,4.33
2023-03-12T05:45:36.732Z,4.90
2023-03-12T05:48:03.591Z,4.80
2023-03-12T05:50:30.259Z,4.60
2023-03-12T05:52:56.887Z,4.17
2023-03-12T05:55:23.532Z,4.53
2023-03-12T05:57:50.311Z,4.37
2023-03-12T06:00:17.483Z,4.10
2023-03-12T06:02:44.177Z,4.73
2023-03-12T06:05:11.768Z,4.57
2023-03-12T06:07:38.406Z,4.20
2023-03-12T06:10:06.038Z,4.40
2023-03-12T06:12:32.682Z,4.67
2023-03-12T06:14:59.302Z,4.13
2023-03-12T06:17:28.704Z,5.43
2023-03-12T06:19:55.361Z,5.43
2023-03-12T06:22:22.116Z,4.97
2023-03-12T06:24:48.753Z,5.00
2023-03-12T06:27:16.402Z,5.30
2023-03-12T06:29:43.066Z,4.17
2023-03-12T06:32:09.686Z,4.97
2023-03-12T06:34:36.296Z,6.67
2023-03-12T06:37:02.948Z,5.70
2023-03-12T06:39:30.007Z,6.10
2023-03-12T06:41:56.800Z,6.77
2023-03-12T06:44:23.644Z,5.93
2023-03-12T06:46:50.709Z,7.77
2023-03-12T06:49:17.358Z,11.17
2023-03-12T06:51:44.004Z,9.17
2023-03-12T06:54:10.638Z,6.87
2023-03-12T06:56:38.097Z,7.30
2023-03-12T06:59:04.873Z,6.50
2023-03-12T07:01:31.603Z,6.77
2023-03-12T07:03:58.353Z,6.77
2023-03-12T07:06:25.238Z,6.73
2023-03-12T07:08:52.486Z,7.17
2023-03-12T07:11:19.128Z,6.43
2023-03-12T07:13:45.913Z,7.17
2023-03-12T07:16:12.632Z,6.70
2023-03-12T07:18:39.346Z,6.23
2023-03-12T07:21:06.255Z,5.70
2023-03-12T07:23:32.892Z,5.70
2023-03-12T07:25:59.554Z,4.80
2023-03-12T07:28:26.189Z,29.50
2023-03-12T07:30:52.858Z,10.77
2023-03-12T07:33:21.162Z,7.03
2023-03-12T07:35:51.013Z,6.27
2023-03-12T07:38:18.809Z,5.60
2023-03-12T07:40:45.601Z,4.87
2023-03-12T07:43:12.741Z,4.30
2023-03-12T07:45:39.842Z,4.00
2023-03-12T07:48:07.222Z,6.73
2023-03-12T07:50:34.945Z,4.50
2023-03-12T07:53:01.867Z,4.50
2023-03-12T07:55:28.599Z,4.00
2023-03-12T07:57:58.398Z,3.80
2023-03-12T08:00:26.575Z,4.17
2023-03-12T08:02:53.711Z,3.60
2023-03-12T08:05:24.715Z,3.63
2023-03-12T08:07:52.448Z,3.70
2023-03-12T08:10:19.808Z,4.47
2023-03-12T08:12:46.683Z,4.33
2023-03-12T08:15:13.523Z,4.20
2023-03-12T08:17:40.272Z,4.10
2023-03-12T08:20:10.366Z,3.90
2023-03-12T08:22:38.102Z,2.87
2023-03-12T08:25:05.668Z,2.80
2023-03-12T08:27:33.749Z,3.50
2023-03-12T08:30:00.413Z,2.70
2023-03-12T08:32:27.187Z,2.80
2023-03-12T08:34:54.025Z,2.70
2023-03-12T08:37:20.602Z,2.27
2023-03-12T08:39:47.201Z,2.00
2023-03-12T08:42:13.814Z,2.10
2023-03-12T08:44:40.411Z,2.30
2023-03-12T08:47:07.056Z,2.10
2023-03-12T08:49:33.839Z,2.03
2023-03-12T08:52:00.642Z,34.47
2023-03-12T08:54:27.263Z,34.00
2023-03-12T08:56:53.967Z,3.33
2023-03-12T08:59:22.335Z,2.50
2023-03-12T09:01:49.077Z,2.30
2023-03-12T09:04:16.217Z,2.37
2023-03-12T09:06:43.355Z,1.93
2023-03-12T09:09:10.133Z,2.83
2023-03-12T09:11:39.615Z,1.67
2023-03-12T09:16:52.858Z,2.43
2023-03-12T09:19:20.586Z,2.80
2023-03-12T09:21:47.203Z,1.53
2023-03-12T09:24:13.817Z,2.13
2023-03-12T09:26:40.414Z,2.10
2023-03-12T09:29:07.018Z,1.73
2023-03-12T09:31:34.673Z,1.63
2023-03-12T09:34:01.300Z,2.17
2023-03-12T09:36:28.274Z,1.63
2023-03-12T09:38:55.218Z,3.10
2023-03-12T09:41:25.373Z,2.60
2023-03-12T09:43:57.429Z,1.80
2023-03-12T09:46:33.344Z,2.13
2023-03-12T09:49:02.487Z,1.70
2023-03-12T09:51:34.754Z,1.40
2023-03-12T09:54:04.381Z,1.50
2023-03-12T09:56:31.475Z,1.40
2023-03-12T09:58:58.085Z,1.50
2023-03-12T10:01:46.580Z,1.63
2023-03-12T10:04:25.063Z,1.70
2023-03-12T10:07:23.826Z,1.87
2023-03-12T10:10:27.997Z,1.77
2023-03-12T10:13:01.683Z,2.03
2023-03-12T10:15:55.354Z,3.55
2023-03-12T10:18:48.402Z,1.70
2023-03-12T10:21:35.802Z,2.10
2023-03-12T10:24:11.819Z,1.80
2023-03-12T10:26:41.106Z,3.20
2023-03-12T10:29:17.884Z,3.33
2023-03-12T10:31:55.363Z,3.13
2023-03-12T10:34:37.692Z,2.67
2023-03-12T10:37:42.453Z,3.63
2023-03-12T10:40:34.220Z,2.83
2023-03-12T10:43:02.279Z,3.30
2023-03-12T10:46:02.390Z,2.43
2023-03-12T10:48:29.019Z,2.20
2023-03-12T10:51:01.852Z,1.43
2023-03-12T10:53:39.228Z,1.73
2023-03-12T10:56:17.286Z,2.00
2023-03-12T10:58:49.496Z,1.60
2023-03-12T11:01:29.392Z,1.97
2023-03-12T11:04:22.166Z,1.70
2023-03-12T11:07:21.532Z,1.63
2023-03-12T11:10:08.461Z,1.70
2023-03-12T11:12:37.134Z,2.63
2023-03-12T11:15:29.152Z,3.30
2023-03-12T11:18:24.077Z,2.30
2023-03-12T11:23:30.568Z,1.90
2023-03-12T11:26:00.839Z,2.40
2023-03-12T11:28:43.234Z,1.20
2023-03-12T11:31:19.166Z,1.57
2023-03-12T11:33:45.869Z,2.47
2023-03-12T11:36:30.274Z,2.60
2023-03-12T11:39:13.595Z,2.70
2023-03-12T11:41:56.177Z,2.90
2023-03-12T11:44:28.987Z,3.20
2023-03-12T11:47:24.399Z,2.63
2023-03-12T11:50:12.336Z,2.50
2023-03-12T11:52:52.175Z,1.50
2023-03-12T11:55:46.836Z,2.83
2023-03-12T11:58:27.885Z,1.42
2023-03-12T12:01:10.147Z,8.17
2023-03-12T12:03:45.645Z,2.40
2023-03-12T12:06:21.348Z,1.37
2023-03-12T12:08:51.416Z,2.20
2023-03-12T12:11:48.200Z,1.37
2023-03-12T12:14:55.248Z,2.40
2023-03-12T12:17:27.720Z,6.47
2023-03-12T12:20:10.083Z,7.80
2023-03-12T12:23:12.745Z,2.70
2023-03-12T12:25:48.709Z,3.23
2023-03-12T12:28:49.287Z,2.47
2023-03-12T12:31:37.526Z,1.90
2023-03-12T12:34:29.014Z,16.43
2023-03-12T12:37:22.490Z,2.57
2023-03-12T12:40:05.196Z,2.60
2023-03-12T12:42:33.672Z,2.23
2023-03-12T12:45:02.389Z,2.40
2023-03-12T12:48:15.752Z,2.03
2023-03-12T12:50:42.718Z,2.43
2023-03-12T12:53:25.603Z,1.87
2023-03-12T12:56:01.546Z,1.43
2023-03-12T12:58:44.714Z,1.80
2023-03-12T13:01:11.837Z,1.60
2023-03-12T13:03:38.734Z,1.60
2023-03-12T13:06:06.837Z,1.60
2023-03-12T13:08:43.120Z,1.60
2023-03-12T13:11:20.032Z,1.33
2023-03-12T13:14:02.687Z,1.40
2023-03-12T13:16:42.589Z,1.33
2023-03-12T13:19:15.898Z,1.60
2023-03-12T13:21:47.411Z,1.60
2023-03-12T13:24:31.334Z,1.30
2023-03-12T13:27:23.702Z,2.42
2023-03-12T13:29:56.860Z,2.70
2023-03-12T13:32:35.776Z,1.57
2023-03-12T13:35:11.988Z,1.70
2023-03-12T13:37:52.155Z,1.93
2023-03-12T13:40:31.330Z,1.20
2023-03-12T13:43:17.180Z,1.50
2023-03-12T13:45:55.841Z,4.90
2023-03-12T13:48:22.896Z,3.33
2023-03-12T13:50:52.909Z,2.07
2023-03-12T13:53:38.678Z,1.20
2023-03-12T13:56:15.244Z,2.63
2023-03-12T13:58:55.173Z,3.00
2023-03-12T14:01:24.694Z,1.90
2023-03-12T14:03:58.568Z,1.83
2023-03-12T14:06:28.805Z,1.48
2023-03-12T14:09:10.795Z,1.37
2023-03-12T14:12:02.524Z,1.60
2023-03-12T14:15:06.522Z,4.73
2023-03-12T14:17:34.751Z,2.23
2023-03-12T14:20:16.021Z,1.60
2023-03-12T14:22:45.139Z,2.10
2023-03-12T14:25:22.476Z,2.43
2023-03-12T14:27:49.268Z,1.60
2023-03-12T14:30:21.568Z,2.10
2023-03-12T14:32:50.638Z,2.40
2023-03-12T14:35:31.213Z,1.63
2023-03-12T14:38:06.123Z,2.00
2023-03-12T14:40:40.112Z,2.20
2023-03-12T14:43:27.432Z,2.10
2023-03-12T14:45:58.926Z,3.07
2023-03-12T14:48:34.668Z,2.00
2023-03-12T14:51:03.548Z,7.03
2023-03-12T14:53:32.897Z,1.70
2023-03-12T14:56:24.650Z,2.43
2023-03-12T14:58:52.325Z,2.20
2023-03-12T15:01:22.324Z,1.50
2023-03-12T15:03:54.432Z,3.30
2023-03-12T15:06:36.633Z,1.90
2023-03-12T15:09:05.097Z,1.57
2023-03-12T15:11:33.821Z,1.90
2023-03-12T15:14:14.406Z,2.07
2023-03-12T15:16:42.438Z,1.27
2023-03-12T15:19:18.770Z,1.13
2023-03-12T15:21:46.193Z,1.43
2023-03-12T15:24:13.941Z,1.30
2023-03-12T15:26:41.426Z,1.67
2023-03-12T15:29:13.960Z,1.80
2023-03-12T15:31:45.843Z,2.60
2023-03-12T15:34:27.744Z,2.03
2023-03-12T15:36:54.935Z,4.73
2023-03-12T15:39:26.632Z,3.37
2023-03-12T15:41:54.378Z,3.47
2023-03-12T15:44:23.574Z,3.97
2023-03-12T15:47:10.830Z,2.40
2023-03-12T15:49:38.789Z,2.73
2023-03-12T15:52:26.609Z,2.60
2023-03-12T15:55:01.623Z,3.30
2023-03-12T15:57:28.815Z,5.43
2023-03-12T16:00:13.687Z,5.27
2023-03-12T16:02:51.588Z,36.20
2023-03-12T16:05:20.120Z,4.40
2023-03-12T16:07:46.807Z,2.40
2023-03-12T16:10:15.329Z,2.30
2023-03-12T16:12:42.615Z,8.40
2023-03-12T16:18:39.014Z,2.30
2023-03-12T16:21:05.809Z,1.70
2023-03-12T16:23:32.514Z,21.77
2023-03-12T16:25:59.787Z,3.83
2023-03-12T16:28:26.515Z,1.50
2023-03-12T16:30:53.411Z,4.07
2023-03-12T16:33:22.184Z,1.80
2023-03-12T16:35:48.856Z,2.40
2023-03-12T16:38:15.554Z,3.17
2023-03-12T16:40:49.582Z,2.00
2023-03-12T16:43:22.102Z,6.15
2023-03-12T16:45:50.271Z,1.77
2023-03-12T16:48:24.104Z,1.73
2023-03-12T16:50:52.854Z,3.78
2023-03-12T16:53:19.934Z,3.53
2023-03-12T16:55:50.287Z,2.17
2023-03-12T16:58:18.782Z,1.77
2023-03-12T17:00:45.456Z,1.70
2023-03-12T17:03:18.835Z,2.63
2023-03-12T17:05:45.764Z,3.05
2023-03-12T17:08:14.160Z,2.17
2023-03-12T17:10:40.908Z,2.57
2023-03-12T17:13:07.503Z,2.73
2023-03-12T17:15:34.242Z,3.57
2023-03-12T17:18:03.546Z,1.80
2023-03-12T17:20:36.097Z,1.50
2023-03-12T17:23:03.717Z,2.07
2023-03-12T17:25:32.897Z,2.27
2023-03-12T17:27:59.767Z,2.07
2023-03-12T17:30:27.897Z,2.47
2023-03-12T17:33:01.175Z,2.60
2023-03-12T17:35:27.873Z,2.20
2023-03-12T17:37:54.516Z,2.60
2023-03-12T17:40:21.163Z,2.93
2023-03-12T17:42:47.819Z,2.30
2023-03-12T17:45:14.660Z,2.57
2023-03-12T17:47:41.500Z,7.20
2023-03-12T17:50:08.657Z,4.30
2023-03-12T17:52:35.455Z,3.13
2023-03-12T17:55:03.389Z,1.77
2023-03-12T17:57:30.457Z,1.70
2023-03-12T17:59:57.221Z,1.80
2023-03-12T18:02:24.725Z,2.10
2023-03-12T18:04:51.850Z,1.90
2023-03-12T18:07:18.683Z,2.30
2023-03-12T18:09:45.369Z,2.20
2023-03-12T18:12:12.501Z,2.47
2023-03-12T18:14:39.249Z,2.30
2023-03-12T18:17:05.954Z,2.37
2023-03-12T18:19:35.122Z,2.37
2023-03-12T18:22:01.993Z,2.60
2023-03-12T18:24:28.689Z,3.00
2023-03-12T18:26:55.324Z,3.07
2023-03-12T18:29:21.925Z,2.50
2023-03-12T18:31:48.870Z,2.57
2023-03-12T18:34:16.298Z,3.27
2023-03-12T20:44:50.480Z,6.90
2023-03-12T20:47:25.087Z,6.73
2023-03-12T20:49:51.765Z,6.20
2023-03-12T20:52:18.462Z,5.50
2023-03-12T20:54:45.069Z,6.37
2023-03-12T20:57:11.717Z,6.43
2023-03-12T20:59:38.281Z,6.47
2023-03-12T21:02:04.992Z,6.20
2023-03-12T21:04:31.569Z,6.63
2023-03-12T21:06:58.157Z,6.33
2023-03-12T21:09:24.729Z,7.53
2023-03-12T21:11:51.328Z,6.37
2023-03-12T21:14:17.965Z,6.43
2023-03-12T21:16:44.601Z,7.10
2023-03-12T21:19:11.210Z,7.50
2023-03-12T21:21:38.058Z,7.27
2023-03-12T21:24:04.890Z,7.33
2023-03-12T21:26:31.533Z,7.43
2023-03-12T21:28:58.145Z,8.00
2023-03-12T21:31:26.722Z,7.77
2023-03-12T21:33:57.931Z,7.53
2023-03-12T21:36:25.377Z,7.87
2023-03-12T21:38:52.205Z,8.20
2023-03-12T21:41:19.283Z,7.77
2023-03-12T21:43:46.907Z,7.70
2023-03-12T21:46:16.408Z,7.40
2023-03-12T21:48:44.455Z,8.20
2023-03-12T21:51:12.195Z,8.57
2023-03-12T21:53:38.919Z,8.83
2023-03-12T21:56:07.350Z,8.97
2023-03-12T21:58:34.447Z,9.43
2023-03-12T22:01:12.913Z,10.40
2023-03-12T22:03:40.602Z,11.43
2023-03-12T22:06:07.566Z,10.83
2023-03-12T22:08:34.776Z,12.33
2023-03-12T22:11:02.124Z,10.73
2023-03-12T22:13:29.309Z,12.90
2023-03-12T22:16:00.952Z,11.03
2023-03-12T22:18:28.303Z,12.40
2023-03-12T22:20:56.827Z,12.13
2023-03-12T22:23:24.128Z,12.67
2023-03-12T22:25:51.233Z,12.50
2023-03-12T22:28:18.179Z,12.27
2023-03-12T22:30:44.859Z,12.10
2023-03-12T22:33:11.801Z,13.17
2023-03-12T22:35:46.308Z,12.37
2023-03-12T22:38:12.955Z,12.37
2023-03-12T22:40:39.697Z,13.97
2023-03-12T22:43:06.640Z,12.43
2023-03-12T22:45:33.330Z,12.07
2023-03-12T22:48:00.348Z,15.13
2023-03-12T22:50:26.953Z,13.07
2023-03-12T22:52:53.701Z,13.87
2023-03-12T22:55:20.280Z,14.10
2023-03-12T22:57:46.891Z,12.97
2023-03-12T23:00:16.302Z,13.37
2023-03-12T23:02:42.994Z,12.80
2023-03-12T23:05:10.186Z,14.23
2023-03-12T23:07:37.130Z,13.63
2023-03-12T23:10:04.498Z,14.77
2023-03-12T23:12:31.209Z,13.37
2023-03-12T23:14:57.787Z,14.47
2023-03-12T23:17:24.416Z,14.53
2023-03-12T23:19:50.987Z,14.73
2023-03-12T23:22:17.573Z,13.53
2023-03-12T23:24:44.227Z,13.13
2023-03-12T23:27:10.813Z,13.70
2023-03-12T23:29:37.497Z,14.60
2023-03-12T23:32:04.730Z,14.07
2023-03-12T23:34:33.471Z,13.10
2023-03-12T23:37:00.196Z,12.67
2023-03-12T23:39:26.822Z,14.03
2023-03-12T23:41:53.403Z,15.50
2023-03-12T23:44:20.019Z,14.37
2023-03-12T23:46:46.854Z,12.67
2023-03-12T23:49:13.561Z,12.73
2023-03-12T23:51:42.970Z,14.10
2023-03-12T23:54:09.554Z,12.63
2023-03-12T23:56:38.247Z,13.67
2023-03-12T23:59:06.281Z,12.53
